createdAt,value
2018-10-17T00:00:27.362Z,10.60
2018-10-17T00:01:27.331Z,10.80
2018-10-17T00:02:27.321Z,10.90
2018-10-17T00:03:27.313Z,11.20
2018-10-17T00:04:27.300Z,11.10
2018-10-17T00:05:27.320Z,10.80
2018-10-17T00:06:27.278Z,12.80
2018-10-17T00:07:27.266Z,11.00
2018-10-17T00:08:27.255Z,11.60
2018-10-17T00:09:27.244Z,11.10
2018-10-17T00:10:27.234Z,11.20
2018-10-17T00:11:27.237Z,10.50
2018-10-17T00:12:27.214Z,10.80
2018-10-17T00:13:27.215Z,11.60
2018-10-17T00:14:27.202Z,11.60
2018-10-17T00:15:27.179Z,11.70
2018-10-17T00:16:27.189Z,11.60
2018-10-17T00:17:27.155Z,10.90
2018-10-17T00:18:27.193Z,10.70
2018-10-17T00:19:27.136Z,11.10
2018-10-17T00:20:27.124Z,12.40
2018-10-17T00:21:27.115Z,10.70
2018-10-17T00:22:27.104Z,13.80
2018-10-17T00:23:27.091Z,10.90
2018-10-17T00:24:27.105Z,11.90
2018-10-17T00:25:27.070Z,11.00
2018-10-17T00:26:27.062Z,11.80
2018-10-17T00:27:27.050Z,11.10
2018-10-17T00:28:27.037Z,11.10
2018-10-17T00:29:27.031Z,10.90
2018-10-17T00:30:27.029Z,11.10
2018-10-17T00:31:27.006Z,10.80
2018-10-17T00:32:26.993Z,11.70
2018-10-17T00:33:26.982Z,10.90
2018-10-17T00:34:26.985Z,11.70
2018-10-17T00:35:26.974Z,11.80
2018-10-17T00:36:26.950Z,11.30
2018-10-17T00:37:26.943Z,12.90
2018-10-17T00:38:26.948Z,11.30
2018-10-17T00:39:26.919Z,11.40
2018-10-17T00:40:27.032Z,11.20
2018-10-17T00:41:26.897Z,11.30
2018-10-17T00:42:26.883Z,11.50
2018-10-17T00:43:26.874Z,10.80
2018-10-17T00:44:26.872Z,11.60
2018-10-17T00:45:26.852Z,11.70
2018-10-17T00:46:26.840Z,11.10
2018-10-17T00:47:26.843Z,11.00
2018-10-17T00:48:26.818Z,11.90
2018-10-17T00:49:26.812Z,11.10
2018-10-17T00:50:26.799Z,11.90
2018-10-17T00:51:26.800Z,11.00
2018-10-17T00:52:26.775Z,11.40
2018-10-17T00:53:26.765Z,11.40
2018-10-17T00:54:26.752Z,13.80
2018-10-17T00:55:26.743Z,11.50
2018-10-17T00:56:26.747Z,11.50
2018-10-17T00:57:26.721Z,11.50
2018-10-17T00:58:26.710Z,11.30
2018-10-17T00:59:26.698Z,11.50
2018-10-17T01:00:26.693Z,12.10
2018-10-17T01:01:26.696Z,11.20
2018-10-17T01:02:26.671Z,11.00
2018-10-17T01:03:26.658Z,11.00
2018-10-17T01:04:26.647Z,10.60
2018-10-17T01:05:26.634Z,11.60
2018-10-17T01:06:26.653Z,11.00
2018-10-17T01:07:26.611Z,11.60
2018-10-17T01:08:26.600Z,11.00
2018-10-17T01:09:26.590Z,13.80
2018-10-17T01:10:26.578Z,14.00
2018-10-17T01:11:26.567Z,11.40
2018-10-17T01:12:26.570Z,12.10
2018-10-17T01:13:26.560Z,11.90
2018-10-17T01:14:26.563Z,11.40
2018-10-17T01:15:26.524Z,11.50
2018-10-17T01:16:26.513Z,11.50
2018-10-17T01:17:26.502Z,11.40
2018-10-17T01:18:26.493Z,11.40
2018-10-17T01:19:26.483Z,11.70
2018-10-17T01:20:26.482Z,11.30
2018-10-17T01:21:26.459Z,10.80
2018-10-17T01:22:26.448Z,11.10
2018-10-17T01:23:26.451Z,11.40
2018-10-17T01:24:26.425Z,11.20
2018-10-17T01:25:26.416Z,10.90
2018-10-17T01:26:26.437Z,11.10
2018-10-17T01:27:26.394Z,10.40
2018-10-17T01:28:26.384Z,11.50
2018-10-17T01:29:26.374Z,11.90
2018-10-17T01:30:26.360Z,11.50
2018-10-17T01:31:26.350Z,11.00
2018-10-17T01:32:26.450Z,10.50
2018-10-17T01:33:26.328Z,10.90
2018-10-17T01:34:26.315Z,11.50
2018-10-17T01:35:26.307Z,10.80
2018-10-17T01:36:26.296Z,11.20
2018-10-17T01:37:26.284Z,10.90
2018-10-17T01:38:26.318Z,10.80
2018-10-17T01:39:26.262Z,11.00
2018-10-17T01:40:26.253Z,10.90
2018-10-17T01:41:26.241Z,11.20
2018-10-17T01:42:26.232Z,11.00
2018-10-17T01:43:26.219Z,11.80
2018-10-17T01:44:26.224Z,10.80
2018-10-17T01:45:26.198Z,11.30
2018-10-17T01:46:26.187Z,11.00
2018-10-17T01:47:26.199Z,11.70
2018-10-17T01:48:26.166Z,11.30
2018-10-17T01:49:26.182Z,11.60
2018-10-17T01:50:26.143Z,11.90
2018-10-17T01:51:26.164Z,11.60
2018-10-17T01:52:26.161Z,11.70
2018-10-17T01:53:26.110Z,11.10
2018-10-17T01:54:26.099Z,11.10
2018-10-17T01:55:26.090Z,11.60
2018-10-17T01:56:26.090Z,11.90
2018-10-17T01:57:26.068Z,12.00
2018-10-17T01:58:26.071Z,11.60
2018-10-17T01:59:26.048Z,12.20
2018-10-17T02:00:26.034Z,12.10
2018-10-17T02:01:26.024Z,11.20
2018-10-17T02:02:26.015Z,11.80
2018-10-17T02:03:26.033Z,11.90
2018-10-17T02:04:25.990Z,11.70
2018-10-17T02:05:25.979Z,11.80
2018-10-17T02:06:25.968Z,13.40
2018-10-17T02:07:25.958Z,11.30
2018-10-17T02:08:25.949Z,11.40
2018-10-17T02:09:25.950Z,11.60
2018-10-17T02:10:25.926Z,11.00
2018-10-17T02:11:25.915Z,11.30
2018-10-17T02:12:25.907Z,11.50
2018-10-17T02:13:25.892Z,11.20
2018-10-17T02:14:25.893Z,12.00
2018-10-17T02:15:25.871Z,11.30
2018-10-17T02:16:25.861Z,12.10
2018-10-17T02:17:25.848Z,11.60
2018-10-17T02:18:25.839Z,11.80
2018-10-17T02:19:25.841Z,11.80
2018-10-17T02:20:25.817Z,11.80
2018-10-17T02:21:25.806Z,11.40
2018-10-17T02:22:25.812Z,12.00
2018-10-17T02:23:25.827Z,12.30
2018-10-17T02:24:25.772Z,12.70
2018-10-17T02:25:25.762Z,11.70
2018-10-17T02:26:25.752Z,11.70
2018-10-17T02:27:25.741Z,11.30
2018-10-17T02:28:25.730Z,11.10
2018-10-17T02:29:25.763Z,11.10
2018-10-17T02:30:25.709Z,12.00
2018-10-17T02:31:25.697Z,12.10
2018-10-17T02:32:25.686Z,11.40
2018-10-17T02:33:25.679Z,11.20
2018-10-17T02:34:25.664Z,12.20
2018-10-17T02:35:25.669Z,13.10
2018-10-17T02:36:25.676Z,11.90
2018-10-17T02:37:25.633Z,12.60
2018-10-17T02:38:25.622Z,12.00
2018-10-17T02:39:25.646Z,12.10
2018-10-17T02:40:25.599Z,14.40
2018-10-17T02:41:25.590Z,11.60
2018-10-17T02:42:25.592Z,12.70
2018-10-17T02:43:25.582Z,11.40
2018-10-17T02:44:25.558Z,11.70
2018-10-17T02:45:25.546Z,12.10
2018-10-17T02:46:25.533Z,12.40
2018-10-17T02:47:25.524Z,12.20
2018-10-17T02:48:25.530Z,12.50
2018-10-17T02:49:25.509Z,11.60
2018-10-17T02:50:25.493Z,11.30
2018-10-17T02:51:25.493Z,12.10
2018-10-17T02:52:25.472Z,13.30
2018-10-17T02:53:25.462Z,12.00
2018-10-17T02:54:25.464Z,12.40
2018-10-17T02:55:25.439Z,12.30
2018-10-17T02:56:25.428Z,12.80
2018-10-17T02:57:25.418Z,12.90
2018-10-17T02:58:25.407Z,11.70
2018-10-17T02:59:25.428Z,12.30
2018-10-17T03:00:25.386Z,13.20
2018-10-17T03:01:25.381Z,16.30
2018-10-17T03:02:25.366Z,13.10
2018-10-17T03:03:25.352Z,13.30
2018-10-17T03:04:25.367Z,13.60
2018-10-17T03:05:25.340Z,13.40
2018-10-17T03:06:25.331Z,13.40
2018-10-17T03:07:25.310Z,13.10
2018-10-17T03:08:25.303Z,12.50
2018-10-17T03:09:25.286Z,13.40
2018-10-17T03:10:25.276Z,12.40
2018-10-17T03:11:25.289Z,12.70
2018-10-17T03:12:25.259Z,12.10
2018-10-17T03:13:25.244Z,12.80
2018-10-17T03:14:25.232Z,12.90
2018-10-17T03:15:25.222Z,12.30
2018-10-17T03:16:25.222Z,11.90
2018-10-17T03:17:25.201Z,12.40
2018-10-17T03:18:25.190Z,12.90
2018-10-17T03:19:25.182Z,12.80
2018-10-17T03:20:25.169Z,11.90
2018-10-17T03:21:25.188Z,15.50
2018-10-17T03:22:25.147Z,11.70
2018-10-17T03:23:25.136Z,12.50
2018-10-17T03:24:25.126Z,12.10
2018-10-17T03:25:25.116Z,13.20
2018-10-17T03:26:25.107Z,12.90
2018-10-17T03:27:25.105Z,12.40
2018-10-17T03:28:25.086Z,12.90
2018-10-17T03:29:25.073Z,12.40
2018-10-17T03:30:25.089Z,12.40
2018-10-17T03:31:25.177Z,12.70
2018-10-17T03:32:25.051Z,13.70
2018-10-17T03:33:25.064Z,13.20
2018-10-17T03:34:25.018Z,13.00
2018-10-17T03:35:25.008Z,13.10
2018-10-17T03:36:24.997Z,12.00
2018-10-17T03:37:24.988Z,12.60
2018-10-17T03:38:24.977Z,12.60
2018-10-17T03:39:24.986Z,11.90
2018-10-17T03:40:24.954Z,12.80
2018-10-17T03:41:24.945Z,12.10
2018-10-17T03:42:24.931Z,12.90
2018-10-17T03:43:24.922Z,12.30
2018-10-17T03:44:24.922Z,14.20
2018-10-17T03:45:24.900Z,13.60
2018-10-17T03:46:24.889Z,13.40
2018-10-17T03:47:24.879Z,13.80
2018-10-17T03:48:24.868Z,12.70
2018-10-17T03:49:24.901Z,12.90
2018-10-17T03:50:24.863Z,13.30
2018-10-17T03:51:24.835Z,12.80
2018-10-17T03:52:24.844Z,13.40
2018-10-17T03:53:24.814Z,13.00
2018-10-17T03:54:24.801Z,13.40
2018-10-17T03:55:24.792Z,13.80
2018-10-17T03:56:24.781Z,13.10
2018-10-17T03:57:24.789Z,12.80
2018-10-17T03:58:24.762Z,13.50
2018-10-17T03:59:24.879Z,14.30
2018-10-17T04:00:24.753Z,12.70
2018-10-17T04:01:24.727Z,12.30
2018-10-17T04:02:24.716Z,13.30
2018-10-17T04:03:24.712Z,12.50
2018-10-17T04:04:24.694Z,12.60
2018-10-17T04:05:24.698Z,12.80
2018-10-17T04:06:24.711Z,12.50
2018-10-17T04:07:24.664Z,13.00
2018-10-17T04:08:24.653Z,12.90
2018-10-17T04:09:24.644Z,13.20
2018-10-17T04:10:24.633Z,13.20
2018-10-17T04:11:24.621Z,13.20
2018-10-17T04:12:24.639Z,13.00
2018-10-17T04:13:24.597Z,13.90
2018-10-17T04:14:24.587Z,13.10
2018-10-17T04:15:24.577Z,13.50
2018-10-17T04:16:24.565Z,13.80
2018-10-17T04:17:24.552Z,13.40
2018-10-17T04:18:24.572Z,13.00
2018-10-17T04:19:24.532Z,12.40
2018-10-17T04:20:24.521Z,14.00
2018-10-17T04:21:24.509Z,13.00
2018-10-17T04:22:24.519Z,13.00
2018-10-17T04:23:24.490Z,12.70
2018-10-17T04:24:24.518Z,12.10
2018-10-17T04:25:24.469Z,12.30
2018-10-17T04:26:24.457Z,12.40
2018-10-17T04:27:24.450Z,12.70
2018-10-17T04:28:24.435Z,13.20
2018-10-17T04:29:24.425Z,14.10
2018-10-17T04:30:24.429Z,14.80
2018-10-17T04:31:24.402Z,15.70
2018-10-17T04:32:24.400Z,12.30
2018-10-17T04:33:24.384Z,12.80
2018-10-17T04:34:24.382Z,13.20
2018-10-17T04:35:24.365Z,13.20
2018-10-17T04:36:24.349Z,12.30
2018-10-17T04:37:24.339Z,12.20
2018-10-17T04:38:24.328Z,13.60
2018-10-17T04:39:24.332Z,15.00
2018-10-17T04:40:24.322Z,12.90
2018-10-17T04:41:24.296Z,12.40
2018-10-17T04:42:24.286Z,13.80
2018-10-17T04:43:24.273Z,12.20
2018-10-17T04:44:24.297Z,12.30
2018-10-17T04:45:24.255Z,12.00
2018-10-17T04:46:24.242Z,12.70
2018-10-17T04:47:24.262Z,13.60
2018-10-17T04:48:24.220Z,14.40
2018-10-17T04:49:24.209Z,13.20
2018-10-17T04:50:24.212Z,12.60
2018-10-17T04:51:24.194Z,14.00
2018-10-17T04:52:24.176Z,13.80
2018-10-17T04:53:24.166Z,14.00
2018-10-17T04:54:24.155Z,13.90
2018-10-17T04:55:24.179Z,13.70
2018-10-17T04:56:24.133Z,13.10
2018-10-17T04:57:24.123Z,14.20
2018-10-17T04:58:24.115Z,14.40
2018-10-17T04:59:24.099Z,14.10
2018-10-17T05:00:24.088Z,15.30
2018-10-17T05:01:24.111Z,14.10
2018-10-17T05:02:24.071Z,13.60
2018-10-17T05:03:24.063Z,13.60
2018-10-17T05:04:24.099Z,12.90
2018-10-17T05:05:24.039Z,13.40
2018-10-17T05:06:24.028Z,13.10
2018-10-17T05:07:24.181Z,13.50
2018-10-17T05:08:24.002Z,13.50
2018-10-17T05:09:23.992Z,13.60
2018-10-17T05:10:23.981Z,13.70
2018-10-17T05:11:23.997Z,13.90
2018-10-17T05:12:23.958Z,14.50
2018-10-17T05:13:23.947Z,14.10
2018-10-17T05:14:23.937Z,14.20
2018-10-17T05:15:24.026Z,14.40
2018-10-17T05:16:23.915Z,14.00
2018-10-17T05:17:23.945Z,13.70
2018-10-17T05:18:23.894Z,14.30
2018-10-17T05:19:23.883Z,14.40
2018-10-17T05:20:23.874Z,14.00
2018-10-17T05:21:23.862Z,14.00
2018-10-17T05:22:23.854Z,14.20
2018-10-17T05:23:23.854Z,13.50
2018-10-17T05:24:23.830Z,14.20
2018-10-17T05:25:23.834Z,14.00
2018-10-17T05:26:23.809Z,13.80
2018-10-17T05:27:23.801Z,13.70
2018-10-17T05:28:23.803Z,14.00
2018-10-17T05:29:23.781Z,13.80
2018-10-17T05:30:23.767Z,13.20
2018-10-17T05:31:23.757Z,12.70
2018-10-17T05:32:23.747Z,13.40
2018-10-17T05:33:23.749Z,13.20
2018-10-17T05:34:23.722Z,13.90
2018-10-17T05:35:23.711Z,13.80
2018-10-17T05:36:23.711Z,13.60
2018-10-17T05:37:23.768Z,13.40
2018-10-17T05:38:23.688Z,13.00
2018-10-17T05:39:23.667Z,11.70
2018-10-17T05:40:23.658Z,15.50
2018-10-17T05:41:23.647Z,12.90
2018-10-17T05:42:23.636Z,12.60
2018-10-17T05:43:23.633Z,12.60
2018-10-17T05:44:23.678Z,12.60
2018-10-17T05:45:23.612Z,11.80
2018-10-17T05:46:23.591Z,12.70
2018-10-17T05:47:23.583Z,12.20
2018-10-17T05:48:23.575Z,12.30
2018-10-17T05:49:23.563Z,11.90
2018-10-17T05:50:23.692Z,13.10
2018-10-17T05:51:23.537Z,13.00
2018-10-17T05:52:23.528Z,12.30
2018-10-17T05:53:23.515Z,13.80
2018-10-17T05:54:23.510Z,12.50
2018-10-17T05:55:23.551Z,12.10
2018-10-17T05:56:23.496Z,13.20
2018-10-17T05:57:23.474Z,12.80
2018-10-17T05:58:23.462Z,13.10
2018-10-17T05:59:23.454Z,12.60
2018-10-17T06:00:23.450Z,12.50
2018-10-17T06:01:23.454Z,12.40
2018-10-17T06:02:23.464Z,12.60
2018-10-17T06:03:23.408Z,13.00
2018-10-17T06:04:23.424Z,13.20
2018-10-17T06:05:23.388Z,13.50
2018-10-17T06:06:23.381Z,12.50
2018-10-17T06:07:23.365Z,13.10
2018-10-17T06:08:23.353Z,13.10
2018-10-17T06:09:23.348Z,12.20
2018-10-17T06:10:23.406Z,12.70
2018-10-17T06:11:23.324Z,13.80
2018-10-17T06:12:23.325Z,12.40
2018-10-17T06:13:23.303Z,12.80
2018-10-17T06:14:23.294Z,13.00
2018-10-17T06:15:23.281Z,12.90
2018-10-17T06:16:23.268Z,13.50
2018-10-17T06:17:23.350Z,13.00
2018-10-17T06:18:23.248Z,12.20
2018-10-17T06:19:23.237Z,12.20
2018-10-17T06:20:23.225Z,13.90
2018-10-17T06:21:23.217Z,12.20
2018-10-17T06:22:23.231Z,13.20
2018-10-17T06:23:23.195Z,13.70
2018-10-17T06:24:23.183Z,12.00
2018-10-17T06:25:23.179Z,12.10
2018-10-17T06:26:23.161Z,14.40
2018-10-17T06:27:23.150Z,12.00
2018-10-17T06:28:23.199Z,12.20
2018-10-17T06:29:23.128Z,12.20
2018-10-17T06:30:23.121Z,11.60
2018-10-17T06:31:23.112Z,12.10
2018-10-17T06:32:23.108Z,11.10
2018-10-17T06:33:23.085Z,12.40
2018-10-17T06:34:23.137Z,11.20
2018-10-17T06:35:23.065Z,12.00
2018-10-17T06:36:23.091Z,13.30
2018-10-17T06:37:23.041Z,12.30
2018-10-17T06:38:23.030Z,12.20
2018-10-17T06:39:23.030Z,11.70
2018-10-17T06:40:23.012Z,11.70
2018-10-17T06:41:22.999Z,11.20
2018-10-17T06:42:23.024Z,11.10
2018-10-17T06:43:23.005Z,11.20
2018-10-17T06:44:22.969Z,12.00
2018-10-17T06:45:22.993Z,12.90
2018-10-17T06:46:22.944Z,11.80
2018-10-17T06:47:22.934Z,11.40
2018-10-17T06:48:22.983Z,11.80
2018-10-17T06:49:22.911Z,12.00
2018-10-17T06:50:22.900Z,13.00
2018-10-17T06:51:22.890Z,12.60
2018-10-17T06:52:22.919Z,13.50
2018-10-17T06:53:22.866Z,12.30
2018-10-17T06:54:22.873Z,12.40
2018-10-17T06:55:22.848Z,10.90
2018-10-17T06:56:22.891Z,13.50
2018-10-17T06:57:22.827Z,11.40
2018-10-17T06:58:22.827Z,12.20
2018-10-17T06:59:22.812Z,12.50
2018-10-17T07:00:22.791Z,13.50
2018-10-17T07:01:22.781Z,11.80
2018-10-17T07:02:22.845Z,12.00
2018-10-17T07:03:22.777Z,13.30
2018-10-17T07:04:22.748Z,11.50
2018-10-17T07:05:22.737Z,13.10
2018-10-17T07:06:22.725Z,13.80
2018-10-17T07:07:22.728Z,12.90
2018-10-17T07:08:22.884Z,16.90
2018-10-17T07:09:22.699Z,13.60
2018-10-17T07:10:22.684Z,14.00
2018-10-17T07:11:22.797Z,15.80
2018-10-17T07:12:22.687Z,13.70
2018-10-17T07:13:22.684Z,13.30
2018-10-17T07:14:22.638Z,14.70
2018-10-17T07:15:22.675Z,16.30
2018-10-17T07:16:22.615Z,14.80
2018-10-17T07:17:22.605Z,13.40
2018-10-17T07:18:22.626Z,14.60
2018-10-17T07:19:22.583Z,14.80
2018-10-17T07:20:22.574Z,14.00
2018-10-17T07:21:22.562Z,13.70
2018-10-17T07:22:22.551Z,16.80
2018-10-17T07:23:22.539Z,14.10
2018-10-17T07:24:22.545Z,15.20
2018-10-17T07:25:22.519Z,16.00
2018-10-17T07:26:22.510Z,15.20
2018-10-17T07:27:22.496Z,14.60
2018-10-17T07:28:22.484Z,16.40
2018-10-17T07:29:22.639Z,16.70
2018-10-17T07:30:22.462Z,15.60
2018-10-17T07:31:22.454Z,16.20
2018-10-17T07:32:22.439Z,14.20
2018-10-17T07:33:22.428Z,12.80
2018-10-17T07:34:22.432Z,14.00
2018-10-17T07:35:22.407Z,12.60
2018-10-17T07:36:22.397Z,12.40
2018-10-17T07:37:22.428Z,13.50
2018-10-17T07:38:22.385Z,13.90
2018-10-17T07:39:22.364Z,12.50
2018-10-17T07:40:22.352Z,14.10
2018-10-17T07:41:22.357Z,12.20
2018-10-17T07:42:22.331Z,11.90
2018-10-17T07:43:22.325Z,12.40
2018-10-17T07:44:22.313Z,11.20
2018-10-17T07:45:22.302Z,12.10
2018-10-17T07:46:22.322Z,12.10
2018-10-17T07:47:22.326Z,11.70
2018-10-17T07:48:22.265Z,12.20
2018-10-17T07:49:22.256Z,12.00
2018-10-17T07:50:22.248Z,12.60
2018-10-17T07:51:22.233Z,13.10
2018-10-17T07:52:22.248Z,11.50
2018-10-17T07:53:22.246Z,10.70
2018-10-17T07:54:22.204Z,15.30
2018-10-17T07:55:22.192Z,11.80
2018-10-17T07:56:22.181Z,12.40
2018-10-17T07:57:22.169Z,11.50
2018-10-17T07:58:22.185Z,12.10
2018-10-17T07:59:22.149Z,11.20
2018-10-17T08:00:22.248Z,10.90
2018-10-17T08:01:22.130Z,11.80
2018-10-17T08:02:22.126Z,10.80
2018-10-17T08:03:22.118Z,10.20
2018-10-17T08:04:22.098Z,10.70
2018-10-17T08:05:22.082Z,10.50
2018-10-17T08:06:22.081Z,12.30
2018-10-17T08:07:22.089Z,11.80
2018-10-17T08:08:22.049Z,12.20
2018-10-17T08:09:22.039Z,13.80
2018-10-17T08:10:22.029Z,11.80
2018-10-17T08:11:22.020Z,11.90
2018-10-17T08:12:22.049Z,15.50
2018-10-17T08:13:22.008Z,14.40
2018-10-17T08:14:22.005Z,10.50
2018-10-17T08:15:21.974Z,10.50
2018-10-17T08:16:21.963Z,11.10
2018-10-17T08:17:21.957Z,15.00
2018-10-17T08:18:21.956Z,11.60
2018-10-17T08:19:21.934Z,12.60
2018-10-17T08:20:21.920Z,12.60
2018-10-17T08:21:21.959Z,10.40
2018-10-17T08:22:21.898Z,10.00
2018-10-17T08:23:21.915Z,10.30
2018-10-17T08:24:21.881Z,12.40
2018-10-17T08:25:21.866Z,9.90
2018-10-17T08:26:21.859Z,8.80
2018-10-17T08:27:21.929Z,9.20
2018-10-17T08:28:21.837Z,9.60
2018-10-17T08:29:21.835Z,9.20
2018-10-17T08:30:21.819Z,11.60
2018-10-17T08:31:21.803Z,9.80
2018-10-17T08:32:21.791Z,8.60
2018-10-17T08:33:21.794Z,10.00
2018-10-17T08:34:21.785Z,9.00
2018-10-17T08:35:21.778Z,8.80
2018-10-17T08:36:21.899Z,9.40
2018-10-17T08:37:22.059Z,11.00
2018-10-17T08:38:21.728Z,9.10
2018-10-17T08:39:21.728Z,8.90
2018-10-17T08:40:21.703Z,9.00
2018-10-17T08:41:21.740Z,9.10
2018-10-17T08:42:21.684Z,8.90
2018-10-17T08:43:21.682Z,9.30
2018-10-17T08:44:21.660Z,10.50
2018-10-17T08:45:21.652Z,9.80
2018-10-17T08:46:21.639Z,8.60
2018-10-17T08:47:21.628Z,8.50
2018-10-17T08:48:21.642Z,10.00
2018-10-17T08:49:21.621Z,9.50
2018-10-17T08:50:21.605Z,9.80
2018-10-17T08:51:21.674Z,8.90
2018-10-17T08:52:21.839Z,9.00
2018-10-17T08:53:21.567Z,9.10
2018-10-17T08:54:21.567Z,9.00
2018-10-17T08:55:21.564Z,10.50
2018-10-17T08:56:21.547Z,9.00
2018-10-17T08:57:21.531Z,10.80
2018-10-17T08:58:21.518Z,9.00
2018-10-17T08:59:21.501Z,9.30
2018-10-17T09:00:21.546Z,8.20
2018-10-17T09:01:21.514Z,8.60
2018-10-17T09:02:21.470Z,9.50
2018-10-17T09:03:21.457Z,11.40
2018-10-17T09:04:21.454Z,9.00
2018-10-17T09:05:21.441Z,8.90
2018-10-17T09:06:21.426Z,8.80
2018-10-17T09:07:21.434Z,9.20
2018-10-17T09:08:21.489Z,9.60
2018-10-17T09:09:21.408Z,9.50
2018-10-17T09:10:21.388Z,9.40
2018-10-17T09:11:21.373Z,9.00
2018-10-17T09:12:21.416Z,9.00
2018-10-17T09:13:21.406Z,9.20
2018-10-17T09:14:21.432Z,8.60
2018-10-17T09:15:21.331Z,9.10
2018-10-17T09:16:21.433Z,10.00
2018-10-17T09:17:21.563Z,9.10
2018-10-17T09:18:21.541Z,11.50
2018-10-17T09:19:21.649Z,10.70
2018-10-17T09:20:21.702Z,10.80
2018-10-17T09:21:21.760Z,10.10
2018-10-17T09:22:21.572Z,11.70
2018-10-17T09:23:21.263Z,8.70
2018-10-17T09:24:21.322Z,9.30
2018-10-17T09:25:21.333Z,8.80
2018-10-17T09:26:21.219Z,9.10
2018-10-17T09:27:21.206Z,9.90
2018-10-17T09:28:21.212Z,9.80
2018-10-17T09:29:21.415Z,9.80
2018-10-17T09:30:21.281Z,9.20
2018-10-17T09:31:21.166Z,9.60
2018-10-17T09:32:21.153Z,10.70
2018-10-17T09:33:21.155Z,10.20
2018-10-17T09:34:21.268Z,9.70
2018-10-17T09:35:21.219Z,10.20
2018-10-17T09:36:21.218Z,10.90
2018-10-17T09:37:21.115Z,10.50
2018-10-17T09:38:21.090Z,10.40
2018-10-17T09:39:21.127Z,10.40
2018-10-17T09:40:21.083Z,10.30
2018-10-17T09:41:21.058Z,11.80
2018-10-17T09:42:21.158Z,10.50
2018-10-17T09:43:21.129Z,13.20
2018-10-17T09:44:21.087Z,15.50
2018-10-17T09:45:21.027Z,10.30
2018-10-17T09:46:21.005Z,9.70
2018-10-17T09:47:20.995Z,9.80
2018-10-17T09:48:20.986Z,9.20
2018-10-17T09:49:20.975Z,9.50
2018-10-17T09:50:21.021Z,10.90
2018-10-17T09:51:20.952Z,10.00
2018-10-17T09:52:20.945Z,9.70
2018-10-17T09:53:20.955Z,12.60
2018-10-17T09:54:20.922Z,10.40
2018-10-17T09:55:20.951Z,8.60
2018-10-17T09:56:20.909Z,9.30
2018-10-17T09:57:20.891Z,9.20
2018-10-17T09:58:20.878Z,8.60
2018-10-17T09:59:20.868Z,10.60
2018-10-17T10:00:20.910Z,9.10
2018-10-17T10:01:20.864Z,8.60
2018-10-17T10:02:20.900Z,7.20
2018-10-17T10:03:20.826Z,7.60
2018-10-17T10:04:20.817Z,7.90
2018-10-17T10:05:20.806Z,8.00
2018-10-17T10:06:20.841Z,7.20
2018-10-17T10:07:20.802Z,7.90
2018-10-17T10:08:20.774Z,7.90
2018-10-17T10:09:20.765Z,8.90
2018-10-17T10:10:20.754Z,9.80
2018-10-17T10:11:20.757Z,8.50
2018-10-17T10:12:20.735Z,8.30
2018-10-17T10:13:20.723Z,8.80
2018-10-17T10:14:20.717Z,8.00
2018-10-17T10:15:20.706Z,9.00
2018-10-17T10:16:20.732Z,7.60
2018-10-17T10:17:20.846Z,7.30
2018-10-17T10:18:20.672Z,7.60
2018-10-17T10:19:20.660Z,6.90
2018-10-17T10:20:20.649Z,7.80
2018-10-17T10:21:20.639Z,7.90
2018-10-17T10:22:20.629Z,9.60
2018-10-17T10:23:20.666Z,9.70
2018-10-17T10:24:20.652Z,7.80
2018-10-17T10:25:20.637Z,11.70
2018-10-17T10:26:20.586Z,11.10
2018-10-17T10:27:20.590Z,9.30
2018-10-17T10:28:20.721Z,8.80
2018-10-17T10:29:20.556Z,11.00
2018-10-17T10:30:20.661Z,8.70
2018-10-17T10:31:20.537Z,9.60
2018-10-17T10:32:20.524Z,9.40
2018-10-17T10:33:20.527Z,8.80
2018-10-17T10:34:20.700Z,8.70
2018-10-17T10:35:20.495Z,9.30
2018-10-17T10:36:20.482Z,8.90
2018-10-17T10:37:20.475Z,8.30
2018-10-17T10:38:20.472Z,7.50
2018-10-17T10:39:20.452Z,8.10
2018-10-17T10:40:20.442Z,8.70
2018-10-17T10:41:20.433Z,8.70
2018-10-17T10:42:20.420Z,8.30
2018-10-17T10:43:20.425Z,8.00
2018-10-17T10:44:20.524Z,8.20
2018-10-17T10:45:20.596Z,7.10
2018-10-17T10:46:20.380Z,6.70
2018-10-17T10:47:20.371Z,7.80
2018-10-17T10:48:20.359Z,8.90
2018-10-17T10:49:20.490Z,11.50
2018-10-17T10:50:20.483Z,7.40
2018-10-17T10:51:20.424Z,9.10
2018-10-17T10:52:20.332Z,7.10
2018-10-17T10:53:20.334Z,6.50
2018-10-17T10:54:20.415Z,7.40
2018-10-17T10:55:20.285Z,7.50
2018-10-17T10:56:20.277Z,8.80
2018-10-17T10:57:20.267Z,8.90
2018-10-17T10:58:20.425Z,7.70
2018-10-17T10:59:20.496Z,8.50
2018-10-17T11:00:20.302Z,7.80
2018-10-17T11:01:20.224Z,7.20
2018-10-17T11:02:20.213Z,7.50
2018-10-17T11:03:20.202Z,6.00
2018-10-17T11:04:20.193Z,5.60
2018-10-17T11:05:20.296Z,7.10
2018-10-17T11:06:20.171Z,5.50
2018-10-17T11:07:20.164Z,5.60
2018-10-17T11:08:20.150Z,5.60
2018-10-17T11:09:20.141Z,7.80
2018-10-17T11:10:20.144Z,5.80
2018-10-17T11:11:20.250Z,6.10
2018-10-17T11:12:20.107Z,6.00
2018-10-17T11:13:20.098Z,6.70
2018-10-17T11:14:20.303Z,6.80
2018-10-17T11:15:20.108Z,7.30
2018-10-17T11:16:20.066Z,6.50
2018-10-17T11:17:20.057Z,6.50
2018-10-17T11:18:20.046Z,6.90
2018-10-17T11:19:20.035Z,7.00
2018-10-17T11:20:20.028Z,7.70
2018-10-17T11:21:20.029Z,7.60
2018-10-17T11:22:20.006Z,6.50
2018-10-17T11:23:20.098Z,6.90
2018-10-17T11:24:19.985Z,6.90
2018-10-17T11:25:19.974Z,6.70
2018-10-17T11:26:19.963Z,6.90
2018-10-17T11:27:19.953Z,7.20
2018-10-17T11:28:19.953Z,7.00
2018-10-17T11:29:20.059Z,6.40
2018-10-17T11:30:19.931Z,6.70
2018-10-17T11:31:19.992Z,6.60
2018-10-17T11:32:19.933Z,6.80
2018-10-17T11:33:19.890Z,7.60
2018-10-17T11:34:19.881Z,6.90
2018-10-17T11:35:19.870Z,6.80
2018-10-17T11:36:19.860Z,6.80
2018-10-17T11:37:19.896Z,7.30
2018-10-17T11:38:19.853Z,7.40
2018-10-17T11:39:19.830Z,6.50
2018-10-17T11:40:19.822Z,6.50
2018-10-17T11:41:19.944Z,7.30
2018-10-17T11:42:19.799Z,6.90
2018-10-17T11:43:19.800Z,5.90
2018-10-17T11:44:19.777Z,7.30
2018-10-17T11:45:19.912Z,6.90
2018-10-17T11:46:19.756Z,6.30
2018-10-17T11:47:19.763Z,6.50
2018-10-17T11:48:19.776Z,6.40
2018-10-17T11:49:19.725Z,9.30
2018-10-17T11:50:19.716Z,7.20
2018-10-17T11:51:19.737Z,7.30
2018-10-17T11:52:19.694Z,9.00
2018-10-17T11:53:19.683Z,7.10
2018-10-17T11:54:19.688Z,7.20
2018-10-17T11:55:19.663Z,8.30
2018-10-17T11:56:19.652Z,8.20
2018-10-17T11:57:19.707Z,7.70
2018-10-17T11:58:19.641Z,6.20
2018-10-17T11:59:19.805Z,7.40
2018-10-17T12:00:19.611Z,6.40
2018-10-17T12:01:19.601Z,5.80
2018-10-17T12:02:19.591Z,7.30
2018-10-17T12:03:19.614Z,6.20
2018-10-17T12:04:19.863Z,8.30
2018-10-17T12:05:19.784Z,6.80
2018-10-17T12:06:19.674Z,5.20
2018-10-17T12:07:19.541Z,7.10
2018-10-17T12:08:19.527Z,6.80
2018-10-17T12:09:19.632Z,5.50
2018-10-17T12:10:19.508Z,6.00
2018-10-17T12:11:19.515Z,5.40
2018-10-17T12:12:19.529Z,7.90
2018-10-17T12:13:19.476Z,9.20
2018-10-17T12:14:19.467Z,5.70
2018-10-17T12:15:19.558Z,6.20
2018-10-17T12:16:19.445Z,6.00
2018-10-17T12:17:19.437Z,5.10
2018-10-17T12:18:19.426Z,5.50
2018-10-17T12:19:19.415Z,5.20
2018-10-17T12:20:19.418Z,8.40
2018-10-17T12:21:19.451Z,7.40
2018-10-17T12:22:19.384Z,6.10
2018-10-17T12:23:19.373Z,6.20
2018-10-17T12:24:19.364Z,6.20
2018-10-17T12:25:19.385Z,8.00
2018-10-17T12:26:19.342Z,5.00
2018-10-17T12:27:19.383Z,5.30
2018-10-17T12:28:19.373Z,6.60
2018-10-17T12:29:19.312Z,8.40
2018-10-17T12:30:19.304Z,5.60
2018-10-17T12:31:19.303Z,5.10
2018-10-17T12:32:19.321Z,5.00
2018-10-17T12:33:19.271Z,4.80
2018-10-17T12:34:19.261Z,5.10
2018-10-17T12:35:19.326Z,4.90
2018-10-17T12:36:19.243Z,4.60
2018-10-17T12:37:19.229Z,5.00
2018-10-17T12:38:19.251Z,4.80
2018-10-17T12:39:19.312Z,7.20
2018-10-17T12:40:19.313Z,4.50
2018-10-17T12:41:19.240Z,4.40
2018-10-17T12:42:19.242Z,5.70
2018-10-17T12:43:19.169Z,4.20
2018-10-17T12:44:19.326Z,4.30
2018-10-17T12:45:19.331Z,6.90
2018-10-17T12:46:19.140Z,5.00
2018-10-17T12:47:19.282Z,4.70
2018-10-17T12:48:19.130Z,5.70
2018-10-17T12:49:19.132Z,6.30
2018-10-17T12:50:19.137Z,4.50
2018-10-17T12:51:19.089Z,6.20
2018-10-17T12:52:19.143Z,7.20
2018-10-17T12:53:19.123Z,5.30
2018-10-17T12:54:19.054Z,8.10
2018-10-17T12:55:19.121Z,4.80
2018-10-17T12:56:19.032Z,5.20
2018-10-17T12:57:19.023Z,4.70
2018-10-17T12:58:19.015Z,5.50
2018-10-17T12:59:19.072Z,5.80
2018-10-17T13:00:19.006Z,4.80